sensor_id;sensor_type;location;lat;lon;timestamp;P1;P2;P0
70915;PMS5003;58557;50.982;-3.222;2023-01-24T00:01:16;129;113;
70915;PMS5003;58557;50.982;-3.222;2023-01-24T00:03:41;131;116;
70915;PMS5003;58557;50.982;-3.222;2023-01-24T00:06:12;126;109;
70915;PMS5003;58557;50.982;-3.222;2023-01-24T00:08:32;130;112;
70915;PMS5003;58557;50.982;-3.222;2023-01-24T00:11:04;124;103;
70915;PMS5003;58557;50.982;-3.222;2023-01-24T00:13:23;116;98;
70915;PMS5003;58557;50.982;-3.222;2023-01-24T00:15:49;106;93;
70915;PMS5003;58557;50.982;-3.222;2023-01-24T00:18:14;104;90;
70915;PMS5003;58557;50.982;-3.222;2023-01-24T00:20:45;115;93;
70915;PMS5003;58557;50.982;-3.222;2023-01-24T00:23:05;115;99;
70915;PMS5003;58557;50.982;-3.222;2023-01-24T00:25:31;102;94;
70915;PMS5003;58557;50.982;-3.222;2023-01-24T00:27:57;108;92;
70915;PMS5003;58557;50.982;-3.222;2023-01-24T00:30:22;97;82;
70915;PMS5003;58557;50.982;-3.222;2023-01-24T00:32:48;103;89;
70915;PMS5003;58557;50.982;-3.222;2023-01-24T00:35:19;111;99;
70915;PMS5003;58557;50.982;-3.222;2023-01-24T00:37:41;110;92;
70915;PMS5003;58557;50.982;-3.222;2023-01-24T00:40:06;116;102;
70915;PMS5003;58557;50.982;-3.222;2023-01-24T00:42:31;102;95;
70915;PMS5003;58557;50.982;-3.222;2023-01-24T00:44:56;110;92;
70915;PMS5003;58557;50.982;-3.222;2023-01-24T00:47:26;100;92;
70915;PMS5003;58557;50.982;-3.222;2023-01-24T00:49:47;115;95;
70915;PMS5003;58557;50.982;-3.222;2023-01-24T00:52:12;110;99;
70915;PMS5003;58557;50.982;-3.222;2023-01-24T00:54:43;116;103;
70915;PMS5003;58557;50.982;-3.222;2023-01-24T00:57:04;117;102;
70915;PMS5003;58557;50.982;-3.222;2023-01-24T00:59:29;119;96;
70915;PMS5003;58557;50.982;-3.222;2023-01-24T01:01:54;113;99;
70915;PMS5003;58557;50.982;-3.222;2023-01-24T01:04:20;107;95;
70915;PMS5003;58557;50.982;-3.222;2023-01-24T01:06:45;106;99;
70915;PMS5003;58557;50.982;-3.222;2023-01-24T01:09:11;99;86;
70915;PMS5003;58557;50.982;-3.222;2023-01-24T01:11:36;104;92;
70915;PMS5003;58557;50.982;-3.222;2023-01-24T01:14:03;109;98;
70915;PMS5003;58557;50.982;-3.222;2023-01-24T01:16:27;97;87;
70915;PMS5003;58557;50.982;-3.222;2023-01-24T01:18:58;105;90;
70915;PMS5003;58557;50.982;-3.222;2023-01-24T01:21:19;117;95;
70915;PMS5003;58557;50.982;-3.222;2023-01-24T01:23:44;95;88;
70915;PMS5003;58557;50.982;-3.222;2023-01-24T01:26:14;117;99;
70915;PMS5003;58557;50.982;-3.222;2023-01-24T01:28:35;123;103;
70915;PMS5003;58557;50.982;-3.222;2023-01-24T01:31:01;111;94;
70915;PMS5003;58557;50.982;-3.222;2023-01-24T01:33:26;107;87;
70915;PMS5003;58557;50.982;-3.222;2023-01-24T01:35:52;104;86;
70915;PMS5003;58557;50.982;-3.222;2023-01-24T01:38:22;104;87;
70915;PMS5003;58557;50.982;-3.222;2023-01-24T01:40:47;103;83;
70915;PMS5003;58557;50.982;-3.222;2023-01-24T01:43:08;97;86;
70915;PMS5003;58557;50.982;-3.222;2023-01-24T01:45:35;118;96;
70915;PMS5003;58557;50.982;-3.222;2023-01-24T01:47:58;109;90;
70915;PMS5003;58557;50.982;-3.222;2023-01-24T01:50:24;102;88;
70915;PMS5003;58557;50.982;-3.222;2023-01-24T01:52:48;94;85;
70915;PMS5003;58557;50.982;-3.222;2023-01-24T01:55:20;110;91;
70915;PMS5003;58557;50.982;-3.222;2023-01-24T01:57:45;109;98;
70915;PMS5003;58557;50.982;-3.222;2023-01-24T02:00:07;106;94;
70915;PMS5003;58557;50.982;-3.222;2023-01-24T02:02:32;101;84;
70915;PMS5003;58557;50.982;-3.222;2023-01-24T02:04:57;97;83;
70915;PMS5003;58557;50.982;-3.222;2023-01-24T02:07:21;100;83;
70915;PMS5003;58557;50.982;-3.222;2023-01-24T02:09:47;108;90;
70915;PMS5003;58557;50.982;-3.222;2023-01-24T02:12:13;109;93;
70915;PMS5003;58557;50.982;-3.222;2023-01-24T02:14:38;93;87;
70915;PMS5003;58557;50.982;-3.222;2023-01-24T02:17:08;86;83;
70915;PMS5003;58557;50.982;-3.222;2023-01-24T02:19:34;87;72;
70915;PMS5003;58557;50.982;-3.222;2023-01-24T02:21:55;84;77;
70915;PMS5003;58557;50.982;-3.222;2023-01-24T02:24:21;100;86;
70915;PMS5003;58557;50.982;-3.222;2023-01-24T02:26:50;101;88;
70915;PMS5003;58557;50.982;-3.222;2023-01-24T02:29:11;95;84;
70915;PMS5003;58557;50.982;-3.222;2023-01-24T02:34:01;102;80;
70915;PMS5003;58557;50.982;-3.222;2023-01-24T02:36:32;88;80;
70915;PMS5003;58557;50.982;-3.222;2023-01-24T02:38:53;116;92;
70915;PMS5003;58557;50.982;-3.222;2023-01-24T02:41:17;84;77;
70915;PMS5003;58557;50.982;-3.222;2023-01-24T02:43:48;94;87;
70915;PMS5003;58557;50.982;-3.222;2023-01-24T02:46:08;89;72;
70915;PMS5003;58557;50.982;-3.222;2023-01-24T02:48:34;97;83;
70915;PMS5003;58557;50.982;-3.222;2023-01-24T02:51:04;84;75;
70915;PMS5003;58557;50.982;-3.222;2023-01-24T02:53:25;84;78;
70915;PMS5003;58557;50.982;-3.222;2023-01-24T02:55:50;88;78;
70915;PMS5003;58557;50.982;-3.222;2023-01-24T02:58:21;96;85;
70915;PMS5003;58557;50.982;-3.222;2023-01-24T03:00:41;99;82;
70915;PMS5003;58557;50.982;-3.222;2023-01-24T03:03:07;90;86;
70915;PMS5003;58557;50.982;-3.222;2023-01-24T03:05:32;88;75;
70915;PMS5003;58557;50.982;-3.222;2023-01-24T03:07:57;82;70;
70915;PMS5003;58557;50.982;-3.222;2023-01-24T03:10:27;110;83;
70915;PMS5003;58557;50.982;-3.222;2023-01-24T03:12:48;108;85;
70915;PMS5003;58557;50.982;-3.222;2023-01-24T03:15:14;97;80;
70915;PMS5003;58557;50.982;-3.222;2023-01-24T03:17:39;97;89;
70915;PMS5003;58557;50.982;-3.222;2023-01-24T03:20:10;103;87;
70915;PMS5003;58557;50.982;-3.222;2023-01-24T03:22:33;89;75;
70915;PMS5003;58557;50.982;-3.222;2023-01-24T03:25:01;88;72;
70915;PMS5003;58557;50.982;-3.222;2023-01-24T03:27:26;90;77;
70915;PMS5003;58557;50.982;-3.222;2023-01-24T03:29:47;81;67;
70915;PMS5003;58557;50.982;-3.222;2023-01-24T03:32:13;83;67;
70915;PMS5003;58557;50.982;-3.222;2023-01-24T03:34:38;77;68;
70915;PMS5003;58557;50.982;-3.222;2023-01-24T03:37:09;83;64;
70915;PMS5003;58557;50.982;-3.222;2023-01-24T03:39:29;80;74;
70915;PMS5003;58557;50.982;-3.222;2023-01-24T03:41:54;81;75;
70915;PMS5003;58557;50.982;-3.222;2023-01-24T03:44:25;81;65;
70915;PMS5003;58557;50.982;-3.222;2023-01-24T03:46:46;81;72;
70915;PMS5003;58557;50.982;-3.222;2023-01-24T03:49:11;82;75;
70915;PMS5003;58557;50.982;-3.222;2023-01-24T03:51:36;89;72;
70915;PMS5003;58557;50.982;-3.222;2023-01-24T03:54:01;80;72;
70915;PMS5003;58557;50.982;-3.222;2023-01-24T03:56:27;69;63;
70915;PMS5003;58557;50.982;-3.222;2023-01-24T03:58:58;82;71;
70915;PMS5003;58557;50.982;-3.222;2023-01-24T04:01:18;87;65;
70915;PMS5003;58557;50.982;-3.222;2023-01-24T04:03:44;73;64;
70915;PMS5003;58557;50.982;-3.222;2023-01-24T04:06:09;77;69;
70915;PMS5003;58557;50.982;-3.222;2023-01-24T04:08:35;74;62;
70915;PMS5003;58557;50.982;-3.222;2023-01-24T04:11:01;75;65;
70915;PMS5003;58557;50.982;-3.222;2023-01-24T04:13:31;75;67;
70915;PMS5003;58557;50.982;-3.222;2023-01-24T04:15:52;82;69;
70915;PMS5003;58557;50.982;-3.222;2023-01-24T04:18:17;77;67;
70915;PMS5003;58557;50.982;-3.222;2023-01-24T04:20:48;85;74;
70915;PMS5003;58557;50.982;-3.222;2023-01-24T04:23:13;71;61;
70915;PMS5003;58557;50.982;-3.222;2023-01-24T04:25:33;65;60;
70915;PMS5003;58557;50.982;-3.222;2023-01-24T04:28:04;67;61;
70915;PMS5003;58557;50.982;-3.222;2023-01-24T04:30:24;72;59;
70915;PMS5003;58557;50.982;-3.222;2023-01-24T04:32:49;79;66;
70915;PMS5003;58557;50.982;-3.222;2023-01-24T04:35:15;62;58;
70915;PMS5003;58557;50.982;-3.222;2023-01-24T04:37:45;71;62;
70915;PMS5003;58557;50.982;-3.222;2023-01-24T04:40:06;73;63;
70915;PMS5003;58557;50.982;-3.222;2023-01-24T04:42:31;69;56;
70915;PMS5003;58557;50.982;-3.222;2023-01-24T04:44:57;70;56;
70915;PMS5003;58557;50.982;-3.222;2023-01-24T04:47:26;69;61;
70915;PMS5003;58557;50.982;-3.222;2023-01-24T04:49:47;78;61;
70915;PMS5003;58557;50.982;-3.222;2023-01-24T04:52:17;69;58;
70915;PMS5003;58557;50.982;-3.222;2023-01-24T04:54:37;66;58;
70915;PMS5003;58557;50.982;-3.222;2023-01-24T04:57:03;81;64;
70915;PMS5003;58557;50.982;-3.222;2023-01-24T04:59:28;64;61;
70915;PMS5003;58557;50.982;-3.222;2023-01-24T05:01:53;77;68;
70915;PMS5003;58557;50.982;-3.222;2023-01-24T05:04:19;66;61;
70915;PMS5003;58557;50.982;-3.222;2023-01-24T05:06:45;76;63;
70915;PMS5003;58557;50.982;-3.222;2023-01-24T05:09:09;63;55;
70915;PMS5003;58557;50.982;-3.222;2023-01-24T05:11:35;69;59;
70915;PMS5003;58557;50.982;-3.222;2023-01-24T05:14:07;71;61;
70915;PMS5003;58557;50.982;-3.222;2023-01-24T05:16:26;69;62;
70915;PMS5003;58557;50.982;-3.222;2023-01-24T05:18:52;80;68;
70915;PMS5003;58557;50.982;-3.222;2023-01-24T05:21:22;72;63;
70915;PMS5003;58557;50.982;-3.222;2023-01-24T05:23:48;76;68;
70915;PMS5003;58557;50.982;-3.222;2023-01-24T05:26:08;83;69;
70915;PMS5003;58557;50.982;-3.222;2023-01-24T05:28:39;76;63;
70915;PMS5003;58557;50.982;-3.222;2023-01-24T05:30:59;77;72;
70915;PMS5003;58557;50.982;-3.222;2023-01-24T05:33:29;80;68;
70915;PMS5003;58557;50.982;-3.222;2023-01-24T05:35:56;73;66;
70915;PMS5003;58557;50.982;-3.222;2023-01-24T05:38:15;78;64;
70915;PMS5003;58557;50.982;-3.222;2023-01-24T05:40:40;87;70;
70915;PMS5003;58557;50.982;-3.222;2023-01-24T05:43:06;75;67;
70915;PMS5003;58557;50.982;-3.222;2023-01-24T05:45:36;92;79;
70915;PMS5003;58557;50.982;-3.222;2023-01-24T05:48:01;91;74;
70915;PMS5003;58557;50.982;-3.222;2023-01-24T05:50:22;83;76;
70915;PMS5003;58557;50.982;-3.222;2023-01-24T05:52:47;75;65;
70915;PMS5003;58557;50.982;-3.222;2023-01-24T05:55:18;88;71;
70915;PMS5003;58557;50.982;-3.222;2023-01-24T05:57:44;82;68;
70915;PMS5003;58557;50.982;-3.222;2023-01-24T06:00:05;87;76;
70915;PMS5003;58557;50.982;-3.222;2023-01-24T06:02:30;80;72;
70915;PMS5003;58557;50.982;-3.222;2023-01-24T06:04:56;77;66;
70915;PMS5003;58557;50.982;-3.222;2023-01-24T06:07:21;83;66;
70915;PMS5003;58557;50.982;-3.222;2023-01-24T06:09:48;76;63;
70915;PMS5003;58557;50.982;-3.222;2023-01-24T06:12:18;75;68;
70915;PMS5003;58557;50.982;-3.222;2023-01-24T06:14:43;78;71;
70915;PMS5003;58557;50.982;-3.222;2023-01-24T06:17:04;77;70;
70915;PMS5003;58557;50.982;-3.222;2023-01-24T06:19:35;81;67;
70915;PMS5003;58557;50.982;-3.222;2023-01-24T06:21:56;84;73;
70915;PMS5003;58557;50.982;-3.222;2023-01-24T06:24:21;74;58;
70915;PMS5003;58557;50.982;-3.222;2023-01-24T06:26:46;76;64;
70915;PMS5003;58557;50.982;-3.222;2023-01-24T06:29:11;77;62;
70915;PMS5003;58557;50.982;-3.222;2023-01-24T06:31:38;65;58;
70915;PMS5003;58557;50.982;-3.222;2023-01-24T06:34:08;71;57;
70915;PMS5003;58557;50.982;-3.222;2023-01-24T06:36:31;53;48;
70915;PMS5003;58557;50.982;-3.222;2023-01-24T06:38:54;73;53;
70915;PMS5003;58557;50.982;-3.222;2023-01-24T06:41:19;63;53;
70915;PMS5003;58557;50.982;-3.222;2023-01-24T06:43:45;58;53;
70915;PMS5003;58557;50.982;-3.222;2023-01-24T06:46:10;69;60;
70915;PMS5003;58557;50.982;-3.222;2023-01-24T06:48:41;73;59;
70915;PMS5003;58557;50.982;-3.222;2023-01-24T06:51:05;72;65;
70915;PMS5003;58557;50.982;-3.222;2023-01-24T06:53:26;66;59;
70915;PMS5003;58557;50.982;-3.222;2023-01-24T06:55:57;75;63;
70915;PMS5003;58557;50.982;-3.222;2023-01-24T06:58:17;65;54;
70915;PMS5003;58557;50.982;-3.222;2023-01-24T07:00:42;70;60;
70915;PMS5003;58557;50.982;-3.222;2023-01-24T07:03:08;72;63;
70915;PMS5003;58557;50.982;-3.222;2023-01-24T07:05:34;66;57;
70915;PMS5003;58557;50.982;-3.222;2023-01-24T07:07:59;80;64;
70915;PMS5003;58557;50.982;-3.222;2023-01-24T07:10:24;78;64;
70915;PMS5003;58557;50.982;-3.222;2023-01-24T07:12:49;78;70;
70915;PMS5003;58557;50.982;-3.222;2023-01-24T07:15:16;80;67;
70915;PMS5003;58557;50.982;-3.222;2023-01-24T07:17:40;77;68;
70915;PMS5003;58557;50.982;-3.222;2023-01-24T07:20:06;78;73;
70915;PMS5003;58557;50.982;-3.222;2023-01-24T07:22:31;72;66;
70915;PMS5003;58557;50.982;-3.222;2023-01-24T07:24:57;78;69;
70915;PMS5003;58557;50.982;-3.222;2023-01-24T07:27:22;81;76;
70915;PMS5003;58557;50.982;-3.222;2023-01-24T07:29:47;86;75;
70915;PMS5003;58557;50.982;-3.222;2023-01-24T07:32:18;77;70;
70915;PMS5003;58557;50.982;-3.222;2023-01-24T07:34:38;82;63;
70915;PMS5003;58557;50.982;-3.222;2023-01-24T07:37:09;79;70;
70915;PMS5003;58557;50.982;-3.222;2023-01-24T07:39:29;88;75;
70915;PMS5003;58557;50.982;-3.222;2023-01-24T07:41:54;88;73;
70915;PMS5003;58557;50.982;-3.222;2023-01-24T07:44:20;90;77;
70915;PMS5003;58557;50.982;-3.222;2023-01-24T07:46:50;78;66;
70915;PMS5003;58557;50.982;-3.222;2023-01-24T07:49:16;95;86;
70915;PMS5003;58557;50.982;-3.222;2023-01-24T07:51:36;94;79;
70915;PMS5003;58557;50.982;-3.222;2023-01-24T07:54:01;89;73;
70915;PMS5003;58557;50.982;-3.222;2023-01-24T07:56:32;88;73;
70915;PMS5003;58557;50.982;-3.222;2023-01-24T07:58:53;79;66;
70915;PMS5003;58557;50.982;-3.222;2023-01-24T08:01:18;79;70;
70915;PMS5003;58557;50.982;-3.222;2023-01-24T08:03:43;80;61;
70915;PMS5003;58557;50.982;-3.222;2023-01-24T08:06:09;84;71;
70915;PMS5003;58557;50.982;-3.222;2023-01-24T08:08:34;87;80;
70915;PMS5003;58557;50.982;-3.222;2023-01-24T08:11:00;90;71;
70915;PMS5003;58557;50.982;-3.222;2023-01-24T08:13:26;80;65;
70915;PMS5003;58557;50.982;-3.222;2023-01-24T08:15:52;78;73;
70915;PMS5003;58557;50.982;-3.222;2023-01-24T08:18:22;82;71;
70915;PMS5003;58557;50.982;-3.222;2023-01-24T08:20:47;77;72;
70915;PMS5003;58557;50.982;-3.222;2023-01-24T08:23:13;82;68;
70915;PMS5003;58557;50.982;-3.222;2023-01-24T08:25:34;79;71;
70915;PMS5003;58557;50.982;-3.222;2023-01-24T08:28:04;75;63;
70915;PMS5003;58557;50.982;-3.222;2023-01-24T08:30:24;89;70;
70915;PMS5003;58557;50.982;-3.222;2023-01-24T08:35:15;103;80;
70915;PMS5003;58557;50.982;-3.222;2023-01-24T08:37:40;80;73;
70915;PMS5003;58557;50.982;-3.222;2023-01-24T08:40:06;88;71;
70915;PMS5003;58557;50.982;-3.222;2023-01-24T08:42:31;88;71;
70915;PMS5003;58557;50.982;-3.222;2023-01-24T08:44:56;113;96;
70915;PMS5003;58557;50.982;-3.222;2023-01-24T08:47:22;116;98;
70915;PMS5003;58557;50.982;-3.222;2023-01-24T08:49:47;115;92;
70915;PMS5003;58557;50.982;-3.222;2023-01-24T08:52:12;96;79;
70915;PMS5003;58557;50.982;-3.222;2023-01-24T08:54:37;85;72;
70915;PMS5003;58557;50.982;-3.222;2023-01-24T08:57:03;95;80;
70915;PMS5003;58557;50.982;-3.222;2023-01-24T08:59:28;84;76;
70915;PMS5003;58557;50.982;-3.222;2023-01-24T09:01:54;84;73;
70915;PMS5003;58557;50.982;-3.222;2023-01-24T09:04:19;69;65;
70915;PMS5003;58557;50.982;-3.222;2023-01-24T09:06:44;97;81;
70915;PMS5003;58557;50.982;-3.222;2023-01-24T09:09:10;87;76;
70915;PMS5003;58557;50.982;-3.222;2023-01-24T09:11:36;95;79;
70915;PMS5003;58557;50.982;-3.222;2023-01-24T09:14:01;76;70;
70915;PMS5003;58557;50.982;-3.222;2023-01-24T09:16:26;73;67;
70915;PMS5003;58557;50.982;-3.222;2023-01-24T09:18:52;82;73;
70915;PMS5003;58557;50.982;-3.222;2023-01-24T09:21:18;85;78;
70915;PMS5003;58557;50.982;-3.222;2023-01-24T09:23:43;85;71;
70915;PMS5003;58557;50.982;-3.222;2023-01-24T09:26:08;96;78;
70915;PMS5003;58557;50.982;-3.222;2023-01-24T09:28:34;93;73;
70915;PMS5003;58557;50.982;-3.222;2023-01-24T09:30:59;94;87;
70915;PMS5003;58557;50.982;-3.222;2023-01-24T09:33:25;81;77;
70915;PMS5003;58557;50.982;-3.222;2023-01-24T09:35:51;100;88;
70915;PMS5003;58557;50.982;-3.222;2023-01-24T09:38:16;104;90;
70915;PMS5003;58557;50.982;-3.222;2023-01-24T09:40:42;103;89;
70915;PMS5003;58557;50.982;-3.222;2023-01-24T09:43:11;68;63;
70915;PMS5003;58557;50.982;-3.222;2023-01-24T09:45:33;75;64;
70915;PMS5003;58557;50.982;-3.222;2023-01-24T09:47:58;86;76;
70915;PMS5003;58557;50.982;-3.222;2023-01-24T09:50:25;69;63;
70915;PMS5003;58557;50.982;-3.222;2023-01-24T09:52:51;79;74;
70915;PMS5003;58557;50.982;-3.222;2023-01-24T09:55:15;87;78;
70915;PMS5003;58557;50.982;-3.222;2023-01-24T09:57:44;78;68;
70915;PMS5003;58557;50.982;-3.222;2023-01-24T10:00:10;91;73;
70915;PMS5003;58557;50.982;-3.222;2023-01-24T10:02:30;72;65;
70915;PMS5003;58557;50.982;-3.222;2023-01-24T10:04:56;76;61;
70915;PMS5003;58557;50.982;-3.222;2023-01-24T10:07:34;67;62;
70915;PMS5003;58557;50.982;-3.222;2023-01-24T10:09:51;69;65;
70915;PMS5003;58557;50.982;-3.222;2023-01-24T10:12:16;76;70;
70915;PMS5003;58557;50.982;-3.222;2023-01-24T10:14:44;80;70;
70915;PMS5003;58557;50.982;-3.222;2023-01-24T10:17:09;65;61;
70915;PMS5003;58557;50.982;-3.222;2023-01-24T10:19:34;83;74;
70915;PMS5003;58557;50.982;-3.222;2023-01-24T10:22:00;82;66;
70915;PMS5003;58557;50.982;-3.222;2023-01-24T10:24:22;74;70;
70915;PMS5003;58557;50.982;-3.222;2023-01-24T10:26:47;77;69;
70915;PMS5003;58557;50.982;-3.222;2023-01-24T10:29:14;95;74;
70915;PMS5003;58557;50.982;-3.222;2023-01-24T10:31:39;95;79;
70915;PMS5003;58557;50.982;-3.222;2023-01-24T10:34:08;87;78;
70915;PMS5003;58557;50.982;-3.222;2023-01-24T10:36:32;91;82;
70915;PMS5003;58557;50.982;-3.222;2023-01-24T10:38:55;95;81;
70915;PMS5003;58557;50.982;-3.222;2023-01-24T10:41:21;86;74;
70915;PMS5003;58557;50.982;-3.222;2023-01-24T10:43:48;85;72;
70915;PMS5003;58557;50.982;-3.222;2023-01-24T10:46:17;71;65;
70915;PMS5003;58557;50.982;-3.222;2023-01-24T10:48:39;92;75;
70915;PMS5003;58557;50.982;-3.222;2023-01-24T10:51:11;94;82;
70915;PMS5003;58557;50.982;-3.222;2023-01-24T10:53:27;103;89;
70915;PMS5003;58557;50.982;-3.222;2023-01-24T10:55:56;89;79;
70915;PMS5003;58557;50.982;-3.222;2023-01-24T10:58:19;98;84;
70915;PMS5003;58557;50.982;-3.222;2023-01-24T11:00:44;120;98;
70915;PMS5003;58557;50.982;-3.222;2023-01-24T11:05:37;126;104;
70915;PMS5003;58557;50.982;-3.222;2023-01-24T11:08:01;123;110;
70915;PMS5003;58557;50.982;-3.222;2023-01-24T11:10:27;98;88;
70915;PMS5003;58557;50.982;-3.222;2023-01-24T11:12:53;78;76;
70915;PMS5003;58557;50.982;-3.222;2023-01-24T11:15:19;78;73;
70915;PMS5003;58557;50.982;-3.222;2023-01-24T11:17:43;61;59;
70915;PMS5003;58557;50.982;-3.222;2023-01-24T11:22:34;72;67;
70915;PMS5003;58557;50.982;-3.222;2023-01-24T11:25:01;70;62;
70915;PMS5003;58557;50.982;-3.222;2023-01-24T11:27:25;75;72;
70915;PMS5003;58557;50.982;-3.222;2023-01-24T11:30:04;67;60;
70915;PMS5003;58557;50.982;-3.222;2023-01-24T11:32:20;73;68;
70915;PMS5003;58557;50.982;-3.222;2023-01-24T11:34:43;70;64;
70915;PMS5003;58557;50.982;-3.222;2023-01-24T11:37:18;75;60;
70915;PMS5003;58557;50.982;-3.222;2023-01-24T11:39:35;59;55;
70915;PMS5003;58557;50.982;-3.222;2023-01-24T11:41:59;61;58;
70915;PMS5003;58557;50.982;-3.222;2023-01-24T11:44:28;62;59;
70915;PMS5003;58557;50.982;-3.222;2023-01-24T11:46:49;68;57;
70915;PMS5003;58557;50.982;-3.222;2023-01-24T11:49:18;59;56;
70915;PMS5003;58557;50.982;-3.222;2023-01-24T11:51:42;53;44;
70915;PMS5003;58557;50.982;-3.222;2023-01-24T11:54:10;55;45;
70915;PMS5003;58557;50.982;-3.222;2023-01-24T11:56:32;57;56;
70915;PMS5003;58557;50.982;-3.222;2023-01-24T11:59:07;58;52;
70915;PMS5003;58557;50.982;-3.222;2023-01-24T12:01:23;64;55;
70915;PMS5003;58557;50.982;-3.222;2023-01-24T12:03:59;47;43;
70915;PMS5003;58557;50.982;-3.222;2023-01-24T12:06:14;50;47;
70915;PMS5003;58557;50.982;-3.222;2023-01-24T12:08:40;47;38;
70915;PMS5003;58557;50.982;-3.222;2023-01-24T12:11:04;61;55;
70915;PMS5003;58557;50.982;-3.222;2023-01-24T12:13:32;70;64;
70915;PMS5003;58557;50.982;-3.222;2023-01-24T12:15:56;63;56;
70915;PMS5003;58557;50.982;-3.222;2023-01-24T12:18:23;70;60;
70915;PMS5003;58557;50.982;-3.222;2023-01-24T12:23:11;64;57;
70915;PMS5003;58557;50.982;-3.222;2023-01-24T12:25:36;75;67;
70915;PMS5003;58557;50.982;-3.222;2023-01-24T12:28:01;67;57;
70915;PMS5003;58557;50.982;-3.222;2023-01-24T12:30:29;68;62;
70915;PMS5003;58557;50.982;-3.222;2023-01-24T12:32:53;56;48;
70915;PMS5003;58557;50.982;-3.222;2023-01-24T12:35:19;54;52;
70915;PMS5003;58557;50.982;-3.222;2023-01-24T12:37:44;40;37;
70915;PMS5003;58557;50.982;-3.222;2023-01-24T12:40:15;45;42;
70915;PMS5003;58557;50.982;-3.222;2023-01-24T12:42:39;42;37;
70915;PMS5003;58557;50.982;-3.222;2023-01-24T12:45:00;42;41;
70915;PMS5003;58557;50.982;-3.222;2023-01-24T12:47:27;48;43;
70915;PMS5003;58557;50.982;-3.222;2023-01-24T12:49:53;45;42;
70915;PMS5003;58557;50.982;-3.222;2023-01-24T12:52:17;43;43;
70915;PMS5003;58557;50.982;-3.222;2023-01-24T12:54:42;49;44;
70915;PMS5003;58557;50.982;-3.222;2023-01-24T12:57:11;49;44;
70915;PMS5003;58557;50.982;-3.222;2023-01-24T12:59:31;53;42;
70915;PMS5003;58557;50.982;-3.222;2023-01-24T13:02:01;50;43;
70915;PMS5003;58557;50.982;-3.222;2023-01-24T13:04:25;50;45;
70915;PMS5003;58557;50.982;-3.222;2023-01-24T13:06:51;44;41;
70915;PMS5003;58557;50.982;-3.222;2023-01-24T13:09:15;48;44;
70915;PMS5003;58557;50.982;-3.222;2023-01-24T13:11:39;56;46;
70915;PMS5003;58557;50.982;-3.222;2023-01-24T13:14:06;47;44;
70915;PMS5003;58557;50.982;-3.222;2023-01-24T13:16:35;50;45;
70915;PMS5003;58557;50.982;-3.222;2023-01-24T13:18:55;51;47;
70915;PMS5003;58557;50.982;-3.222;2023-01-24T13:21:21;49;45;
70915;PMS5003;58557;50.982;-3.222;2023-01-24T13:23:48;43;40;
70915;PMS5003;58557;50.982;-3.222;2023-01-24T13:26:21;47;43;
70915;PMS5003;58557;50.982;-3.222;2023-01-24T13:28:38;37;36;
70915;PMS5003;58557;50.982;-3.222;2023-01-24T13:31:04;47;39;
70915;PMS5003;58557;50.982;-3.222;2023-01-24T13:33:28;44;40;
70915;PMS5003;58557;50.982;-3.222;2023-01-24T13:35:52;54;49;
70915;PMS5003;58557;50.982;-3.222;2023-01-24T13:38:21;64;55;
70915;PMS5003;58557;50.982;-3.222;2023-01-24T13:48:00;48;43;
70915;PMS5003;58557;50.982;-3.222;2023-01-24T13:50:25;44;42;
70915;PMS5003;58557;50.982;-3.222;2023-01-24T13:52:51;44;40;
70915;PMS5003;58557;50.982;-3.222;2023-01-24T13:57:41;45;44;
70915;PMS5003;58557;50.982;-3.222;2023-01-24T14:02:33;34;33;
70915;PMS5003;58557;50.982;-3.222;2023-01-24T14:04:57;48;44;
70915;PMS5003;58557;50.982;-3.222;2023-01-24T14:07:26;46;40;
70915;PMS5003;58557;50.982;-3.222;2023-01-24T14:09:49;42;35;
70915;PMS5003;58557;50.982;-3.222;2023-01-24T14:12:15;58;46;
70915;PMS5003;58557;50.982;-3.222;2023-01-24T14:19:34;53;49;
70915;PMS5003;58557;50.982;-3.222;2023-01-24T14:21:58;61;54;
70915;PMS5003;58557;50.982;-3.222;2023-01-24T14:24:22;54;46;
70915;PMS5003;58557;50.982;-3.222;2023-01-24T14:26:50;59;48;
70915;PMS5003;58557;50.982;-3.222;2023-01-24T14:29:15;55;47;
70915;PMS5003;58557;50.982;-3.222;2023-01-24T14:31:38;55;54;
70915;PMS5003;58557;50.982;-3.222;2023-01-24T14:34:05;52;47;
70915;PMS5003;58557;50.982;-3.222;2023-01-24T14:36:30;52;52;
70915;PMS5003;58557;50.982;-3.222;2023-01-24T14:41:21;56;48;
70915;PMS5003;58557;50.982;-3.222;2023-01-24T14:43:46;52;47;
70915;PMS5003;58557;50.982;-3.222;2023-01-24T14:46:11;47;44;
70915;PMS5003;58557;50.982;-3.222;2023-01-24T14:48:36;59;49;
70915;PMS5003;58557;50.982;-3.222;2023-01-24T14:51:04;51;46;
70915;PMS5003;58557;50.982;-3.222;2023-01-24T14:53:28;56;50;
70915;PMS5003;58557;50.982;-3.222;2023-01-24T14:55:53;52;52;
70915;PMS5003;58557;50.982;-3.222;2023-01-24T14:58:19;66;56;
70915;PMS5003;58557;50.982;-3.222;2023-01-24T15:00:45;58;52;
70915;PMS5003;58557;50.982;-3.222;2023-01-24T15:03:14;64;51;
70915;PMS5003;58557;50.982;-3.222;2023-01-24T15:05:36;59;51;
70915;PMS5003;58557;50.982;-3.222;2023-01-24T15:08:02;71;62;
70915;PMS5003;58557;50.982;-3.222;2023-01-24T15:10:27;76;69;
70915;PMS5003;58557;50.982;-3.222;2023-01-24T15:12:52;66;61;
70915;PMS5003;58557;50.982;-3.222;2023-01-24T15:15:17;60;56;
70915;PMS5003;58557;50.982;-3.222;2023-01-24T15:17:43;51;45;
70915;PMS5003;58557;50.982;-3.222;2023-01-24T15:20:08;51;47;
70915;PMS5003;58557;50.982;-3.222;2023-01-24T15:22:34;57;48;
70915;PMS5003;58557;50.982;-3.222;2023-01-24T15:24:58;46;43;
70915;PMS5003;58557;50.982;-3.222;2023-01-24T15:29:48;50;41;
70915;PMS5003;58557;50.982;-3.222;2023-01-24T15:32:19;49;45;
70915;PMS5003;58557;50.982;-3.222;2023-01-24T15:34:40;50;43;
70915;PMS5003;58557;50.982;-3.222;2023-01-24T15:39:31;62;62;
70915;PMS5003;58557;50.982;-3.222;2023-01-24T15:41:55;60;53;
70915;PMS5003;58557;50.982;-3.222;2023-01-24T15:44:21;64;54;
70915;PMS5003;58557;50.982;-3.222;2023-01-24T15:49:20;61;57;
70915;PMS5003;58557;50.982;-3.222;2023-01-24T15:51:37;62;56;
70915;PMS5003;58557;50.982;-3.222;2023-01-24T15:56:29;59;52;
70915;PMS5003;58557;50.982;-3.222;2023-01-24T15:58:54;66;57;
70915;PMS5003;58557;50.982;-3.222;2023-01-24T16:01:20;60;54;
70915;PMS5003;58557;50.982;-3.222;2023-01-24T16:03:45;59;49;
70915;PMS5003;58557;50.982;-3.222;2023-01-24T16:06:10;64;56;
70915;PMS5003;58557;50.982;-3.222;2023-01-24T16:08:35;56;51;
70915;PMS5003;58557;50.982;-3.222;2023-01-24T16:11:00;62;51;
70915;PMS5003;58557;50.982;-3.222;2023-01-24T16:13:27;68;60;
70915;PMS5003;58557;50.982;-3.222;2023-01-24T16:15:51;63;52;
70915;PMS5003;58557;50.982;-3.222;2023-01-24T16:18:17;66;60;
70915;PMS5003;58557;50.982;-3.222;2023-01-24T16:20:43;55;50;
70915;PMS5003;58557;50.982;-3.222;2023-01-24T16:23:08;77;65;
70915;PMS5003;58557;50.982;-3.222;2023-01-24T16:25:34;70;67;
70915;PMS5003;58557;50.982;-3.222;2023-01-24T16:28:01;96;81;